createdAt,value
2022-10-24T00:00:52.467Z,0.00
2022-10-24T00:01:52.465Z,0.00
2022-10-24T00:02:52.442Z,0.00
2022-10-24T00:03:52.438Z,0.00
2022-10-24T00:04:52.412Z,0.00
2022-10-24T00:05:52.426Z,0.00
2022-10-24T00:06:52.378Z,0.00
2022-10-24T00:07:53.228Z,0.00
2022-10-24T00:08:53.217Z,0.00
2022-10-24T00:09:53.147Z,0.00
2022-10-24T00:10:52.309Z,0.00
2022-10-24T00:11:53.209Z,0.00
2022-10-24T00:12:52.298Z,0.00
2022-10-24T00:13:52.497Z,0.00
2022-10-24T00:14:52.257Z,0.00
2022-10-24T00:15:52.480Z,0.00
2022-10-24T00:16:52.560Z,0.00
2022-10-24T00:17:52.207Z,0.00
2022-10-24T00:18:52.198Z,0.00
2022-10-24T00:19:52.168Z,0.00
2022-10-24T00:20:52.167Z,0.00
2022-10-24T00:21:52.987Z,0.00
2022-10-24T00:22:52.148Z,0.00
2022-10-24T00:23:52.150Z,0.00
2022-10-24T00:24:52.110Z,0.00
2022-10-24T00:25:52.187Z,0.00
2022-10-24T00:26:52.130Z,0.00
2022-10-24T00:27:52.092Z,0.00
2022-10-24T00:28:52.108Z,0.00
2022-10-24T00:29:52.065Z,0.00
2022-10-24T00:30:52.067Z,0.00
2022-10-24T00:31:52.137Z,0.00
2022-10-24T00:32:52.000Z,0.00
2022-10-24T00:33:52.627Z,0.00
2022-10-24T00:34:52.693Z,0.00
2022-10-24T00:35:51.967Z,0.00
2022-10-24T00:36:51.977Z,0.00
2022-10-24T00:37:51.949Z,0.00
2022-10-24T00:38:52.885Z,0.00
2022-10-24T00:39:51.917Z,0.00
2022-10-24T00:40:51.905Z,0.00
2022-10-24T00:41:51.942Z,0.00
2022-10-24T00:42:52.788Z,0.00
2022-10-24T00:43:51.850Z,0.00
2022-10-24T00:44:51.859Z,0.00
2022-10-24T00:45:51.865Z,0.00
2022-10-24T00:46:51.847Z,0.00
2022-10-24T00:47:52.537Z,0.00
2022-10-24T00:48:51.828Z,0.00
2022-10-24T00:49:51.799Z,0.00
2022-10-24T00:50:51.777Z,0.00
2022-10-24T00:51:51.933Z,0.00
2022-10-24T00:52:52.577Z,0.00
2022-10-24T00:53:51.785Z,0.00
2022-10-24T00:54:51.756Z,0.00
2022-10-24T00:55:51.757Z,0.00
2022-10-24T00:56:52.974Z,0.00
2022-10-24T00:57:51.685Z,0.00
2022-10-24T00:58:51.657Z,0.00
2022-10-24T00:59:51.691Z,0.00
2022-10-24T01:00:51.715Z,0.00
2022-10-24T01:01:51.698Z,0.00
2022-10-24T01:02:51.608Z,0.00
2022-10-24T01:03:51.593Z,0.00
2022-10-24T01:04:52.336Z,0.00
2022-10-24T01:05:51.559Z,0.00
2022-10-24T01:06:52.446Z,0.00
2022-10-24T01:07:51.557Z,0.00
2022-10-24T01:08:51.527Z,0.00
2022-10-24T01:09:51.851Z,0.00
2022-10-24T01:10:51.529Z,0.00
2022-10-24T01:11:51.859Z,0.00
2022-10-24T01:12:51.540Z,0.00
2022-10-24T01:13:51.598Z,0.00
2022-10-24T01:14:51.513Z,0.00
2022-10-24T01:15:51.438Z,0.00
2022-10-24T01:16:51.807Z,0.00
2022-10-24T01:17:51.509Z,0.00
2022-10-24T01:18:51.418Z,0.00
2022-10-24T01:19:51.386Z,0.00
2022-10-24T01:20:51.418Z,0.00
2022-10-24T01:21:51.704Z,0.00
2022-10-24T01:22:51.369Z,0.00
2022-10-24T01:23:51.350Z,0.00
2022-10-24T01:24:51.315Z,0.00
2022-10-24T01:25:51.317Z,0.00
2022-10-24T01:26:51.318Z,0.00
2022-10-24T01:27:51.268Z,0.00
2022-10-24T01:28:51.256Z,0.00
2022-10-24T01:29:51.257Z,0.00
2022-10-24T01:30:51.237Z,0.00
2022-10-24T01:31:51.258Z,0.00
2022-10-24T01:32:51.208Z,0.00
2022-10-24T01:33:51.208Z,0.00
2022-10-24T01:34:51.980Z,0.00
2022-10-24T01:35:51.700Z,0.00
2022-10-24T01:36:51.187Z,0.00
2022-10-24T01:37:51.149Z,0.00
2022-10-24T01:38:51.128Z,0.00
2022-10-24T01:39:51.113Z,0.00
2022-10-24T01:40:51.107Z,0.00
2022-10-24T01:41:51.143Z,0.00
2022-10-24T01:42:51.077Z,0.00
2022-10-24T01:43:51.098Z,0.00
2022-10-24T01:44:51.256Z,0.00
2022-10-24T01:45:51.027Z,0.00
2022-10-24T01:46:51.057Z,0.00
2022-10-24T01:47:51.007Z,0.00
2022-10-24T01:48:50.997Z,0.00
2022-10-24T01:49:51.957Z,0.00
2022-10-24T01:50:51.911Z,0.00
2022-10-24T01:51:51.778Z,0.00
2022-10-24T01:52:50.950Z,0.00
2022-10-24T01:53:50.928Z,0.00
2022-10-24T01:54:50.918Z,0.00
2022-10-24T01:55:51.184Z,0.00
2022-10-24T01:56:50.925Z,0.00
2022-10-24T01:57:51.238Z,0.00
2022-10-24T01:58:51.298Z,0.00
2022-10-24T01:59:51.348Z,0.00
2022-10-24T02:00:51.408Z,0.00
2022-10-24T02:01:51.468Z,0.00
2022-10-24T02:02:51.261Z,0.00
2022-10-24T02:03:51.571Z,0.00
2022-10-24T02:04:51.557Z,0.00
2022-10-24T02:05:51.674Z,0.00
2022-10-24T02:06:51.521Z,0.00
2022-10-24T02:07:50.758Z,0.00
2022-10-24T02:08:51.683Z,0.00
2022-10-24T02:09:51.581Z,0.00
2022-10-24T02:10:50.717Z,0.00
2022-10-24T02:11:51.637Z,0.00
2022-10-24T02:12:52.068Z,0.00
2022-10-24T02:13:51.459Z,0.00
2022-10-24T02:14:51.615Z,0.00
2022-10-24T02:15:51.517Z,0.00
2022-10-24T02:16:50.677Z,0.00
2022-10-24T02:17:50.638Z,0.00
2022-10-24T02:18:50.752Z,0.00
2022-10-24T02:19:50.617Z,0.00
2022-10-24T02:20:50.616Z,0.00
2022-10-24T02:21:50.587Z,0.00
2022-10-24T02:22:50.598Z,0.00
2022-10-24T02:23:50.656Z,0.00
2022-10-24T02:24:50.732Z,0.00
2022-10-24T02:25:50.597Z,0.00
2022-10-24T02:26:51.275Z,0.00
2022-10-24T02:27:50.867Z,0.00
2022-10-24T02:28:50.538Z,0.00
2022-10-24T02:29:50.986Z,0.00
2022-10-24T02:30:50.448Z,0.00
2022-10-24T02:31:51.087Z,0.00
2022-10-24T02:32:50.708Z,0.00
2022-10-24T02:33:51.199Z,0.00
2022-10-24T02:34:51.237Z,0.00
2022-10-24T02:35:51.138Z,0.00
2022-10-24T02:36:50.387Z,0.00
2022-10-24T02:37:51.167Z,0.00
2022-10-24T02:38:51.198Z,0.00
2022-10-24T02:39:50.753Z,0.00
2022-10-24T02:40:50.386Z,0.00
2022-10-24T02:41:51.128Z,0.00
2022-10-24T02:42:51.225Z,0.00
2022-10-24T02:43:51.138Z,0.00
2022-10-24T02:44:51.037Z,0.00
2022-10-24T02:45:51.197Z,0.00
2022-10-24T02:46:51.107Z,0.00
2022-10-24T02:47:50.228Z,0.00
2022-10-24T02:48:51.081Z,0.00
2022-10-24T02:49:50.297Z,0.00
2022-10-24T02:51:50.209Z,0.00
2022-10-24T02:52:50.248Z,0.00
2022-10-24T02:53:50.287Z,0.00
2022-10-24T02:54:50.361Z,0.00
2022-10-24T02:55:50.408Z,0.00
2022-10-24T02:56:50.459Z,0.00
2022-10-24T02:57:50.396Z,0.00
2022-10-24T02:58:50.186Z,0.00
2022-10-24T02:59:50.666Z,0.00
2022-10-24T03:00:50.797Z,0.00
2022-10-24T03:01:50.793Z,0.00
2022-10-24T03:02:50.790Z,0.00
2022-10-24T03:03:50.958Z,0.00
2022-10-24T03:04:50.907Z,0.00
2022-10-24T03:05:50.827Z,0.00
2022-10-24T03:06:50.884Z,0.00
2022-10-24T03:07:50.050Z,0.00
2022-10-24T03:08:50.785Z,0.00
2022-10-24T03:09:50.694Z,0.00
2022-10-24T03:10:50.839Z,0.00
2022-10-24T03:11:49.978Z,0.00
2022-10-24T03:12:50.516Z,0.00
2022-10-24T03:13:50.817Z,0.00
2022-10-24T03:14:50.760Z,0.00
2022-10-24T03:15:50.901Z,0.00
2022-10-24T03:16:50.785Z,0.00
2022-10-24T03:17:50.676Z,0.00
2022-10-24T03:18:49.833Z,0.00
2022-10-24T03:19:51.635Z,0.00
2022-10-24T03:20:49.784Z,0.00
2022-10-24T03:21:49.827Z,0.00
2022-10-24T03:22:49.896Z,0.00
2022-10-24T03:23:49.937Z,0.00
2022-10-24T03:24:56.741Z,0.00
2022-10-24T03:25:51.447Z,0.00
2022-10-24T03:26:50.086Z,0.00
2022-10-24T03:27:49.717Z,0.00
2022-10-24T03:28:50.202Z,0.00
2022-10-24T03:29:50.256Z,0.00
2022-10-24T03:30:50.187Z,0.00
2022-10-24T03:31:49.920Z,0.00
2022-10-24T03:32:50.421Z,0.00
2022-10-24T03:33:50.427Z,0.00
2022-10-24T03:34:50.326Z,0.00
2022-10-24T03:35:50.569Z,0.00
2022-10-24T03:36:50.649Z,0.00
2022-10-24T03:37:50.298Z,0.00
2022-10-24T03:38:50.456Z,0.00
2022-10-24T03:39:50.366Z,0.00
2022-10-24T03:40:49.751Z,0.00
2022-10-24T03:41:49.954Z,0.00
2022-10-24T03:42:50.326Z,0.00
2022-10-24T03:43:49.474Z,0.00
2022-10-24T03:44:50.393Z,0.00
2022-10-24T03:45:50.297Z,0.00
2022-10-24T03:46:50.208Z,0.00
2022-10-24T03:47:50.361Z,0.00
2022-10-24T03:48:49.429Z,0.00
2022-10-24T03:49:49.409Z,0.00
2022-10-24T03:50:49.449Z,0.00
2022-10-24T03:51:49.458Z,0.00
2022-10-24T03:52:49.529Z,0.00
2022-10-24T03:53:49.358Z,0.00
2022-10-24T03:54:49.346Z,0.00
2022-10-24T03:55:49.446Z,0.00
2022-10-24T03:56:49.357Z,0.00
2022-10-24T03:57:49.358Z,0.00
2022-10-24T03:58:49.357Z,0.00
2022-10-24T03:59:49.358Z,0.00
2022-10-24T04:00:49.323Z,0.00
2022-10-24T04:01:49.413Z,0.00
2022-10-24T04:02:49.367Z,0.00
2022-10-24T04:03:49.359Z,0.00
2022-10-24T04:04:49.361Z,0.00
2022-10-24T04:05:49.898Z,0.00
2022-10-24T04:06:49.186Z,0.00
2022-10-24T04:07:49.401Z,0.00
2022-10-24T04:08:49.365Z,0.00
2022-10-24T04:09:49.412Z,0.00
2022-10-24T04:10:49.146Z,0.00
2022-10-24T04:11:49.383Z,0.00
2022-10-24T04:12:49.372Z,0.00
2022-10-24T04:13:49.393Z,0.00
2022-10-24T04:14:49.463Z,0.00
2022-10-24T04:15:49.388Z,0.00
2022-10-24T04:16:49.368Z,0.00
2022-10-24T04:17:49.031Z,0.00
2022-10-24T04:18:49.170Z,0.00
2022-10-24T04:19:49.345Z,0.00
2022-10-24T04:20:48.996Z,0.00
2022-10-24T04:21:49.122Z,0.00
2022-10-24T04:22:49.147Z,0.00
2022-10-24T04:23:49.181Z,0.00
2022-10-24T04:24:49.387Z,0.00
2022-10-24T04:25:49.278Z,0.00
2022-10-24T04:26:48.956Z,0.00
2022-10-24T04:27:48.877Z,0.00
2022-10-24T04:28:49.341Z,0.00
2022-10-24T04:29:49.158Z,0.00
2022-10-24T04:30:49.380Z,0.00
2022-10-24T04:31:48.857Z,0.00
2022-10-24T04:32:49.075Z,0.00
2022-10-24T04:33:48.867Z,0.00
2022-10-24T04:34:49.269Z,0.00
2022-10-24T04:35:49.198Z,0.00
2022-10-24T04:36:49.081Z,0.00
2022-10-24T04:37:53.186Z,0.00
2022-10-24T04:38:48.833Z,0.00
2022-10-24T04:39:49.578Z,0.00
2022-10-24T04:40:48.787Z,0.00
2022-10-24T04:41:49.258Z,0.00
2022-10-24T04:42:49.384Z,0.00
2022-10-24T04:43:48.714Z,0.00
2022-10-24T04:44:49.387Z,0.00
2022-10-24T04:45:49.439Z,0.00
2022-10-24T04:46:51.310Z,0.00
2022-10-24T04:47:49.392Z,0.00
2022-10-24T04:48:48.598Z,0.00
2022-10-24T04:49:48.656Z,0.00
2022-10-24T04:50:48.649Z,0.00
2022-10-24T04:51:48.697Z,0.00
2022-10-24T04:52:48.746Z,0.00
2022-10-24T04:53:48.637Z,0.00
2022-10-24T04:54:48.587Z,0.00
2022-10-24T04:55:48.944Z,0.00
2022-10-24T04:56:48.977Z,0.00
2022-10-24T04:57:48.654Z,0.00
2022-10-24T04:58:48.576Z,0.00
2022-10-24T04:59:49.171Z,0.00
2022-10-24T05:00:49.248Z,0.00
2022-10-24T05:01:48.512Z,0.00
2022-10-24T05:02:48.519Z,0.00
2022-10-24T05:03:49.283Z,0.00
2022-10-24T05:04:49.167Z,0.00
2022-10-24T05:05:49.278Z,0.00
2022-10-24T05:06:49.178Z,0.00
2022-10-24T05:07:49.086Z,0.00
2022-10-24T05:08:49.357Z,0.00
2022-10-24T05:09:48.337Z,0.00
2022-10-24T05:10:49.079Z,0.00
2022-10-24T05:11:48.298Z,0.00
2022-10-24T05:12:49.218Z,0.00
2022-10-24T05:13:49.112Z,0.00
2022-10-24T05:14:48.278Z,0.00
2022-10-24T05:15:48.258Z,0.00
2022-10-24T05:16:48.280Z,0.00
2022-10-24T05:17:49.147Z,0.00
2022-10-24T05:18:48.208Z,0.00
2022-10-24T05:19:48.201Z,0.00
2022-10-24T05:20:48.279Z,0.00
2022-10-24T05:21:48.415Z,0.00
2022-10-24T05:22:48.403Z,0.00
2022-10-24T05:23:48.508Z,0.00
2022-10-24T05:24:48.517Z,0.00
2022-10-24T05:25:48.308Z,0.00
2022-10-24T05:26:48.678Z,0.00
2022-10-24T05:27:48.736Z,0.00
2022-10-24T05:28:51.679Z,0.00
2022-10-24T05:29:48.068Z,0.00
2022-10-24T05:30:48.833Z,0.00
2022-10-24T05:31:48.037Z,0.00
2022-10-24T05:32:48.729Z,0.00
2022-10-24T05:33:48.058Z,0.00
2022-10-24T05:34:48.794Z,0.00
2022-10-24T05:35:48.129Z,0.00
2022-10-24T05:36:49.137Z,0.00
2022-10-24T05:37:48.138Z,0.00
2022-10-24T05:38:47.927Z,0.00
2022-10-24T05:39:48.830Z,0.00
2022-10-24T05:40:48.742Z,0.00
2022-10-24T05:41:49.517Z,0.00
2022-10-24T05:42:48.143Z,0.00
2022-10-24T05:43:48.744Z,0.00
2022-10-24T05:44:47.826Z,0.00
2022-10-24T05:45:48.793Z,0.00
2022-10-24T05:46:47.978Z,0.00
2022-10-24T05:47:48.047Z,0.00
2022-10-24T05:48:47.787Z,0.00
2022-10-24T05:49:47.774Z,0.00
2022-10-24T05:50:47.982Z,0.00
2022-10-24T05:51:47.972Z,0.00
2022-10-24T05:52:47.997Z,0.00
2022-10-24T05:53:48.078Z,0.00
2022-10-24T05:54:55.905Z,0.00
2022-10-24T05:55:49.459Z,0.00
2022-10-24T05:56:47.798Z,0.00
2022-10-24T05:57:48.569Z,0.00
2022-10-24T05:58:48.328Z,0.00
2022-10-24T05:59:48.489Z,0.00
2022-10-24T06:00:52.592Z,0.00
2022-10-24T06:01:48.676Z,0.00
2022-10-24T06:02:48.409Z,0.00
2022-10-24T06:03:47.738Z,0.00
2022-10-24T06:04:48.490Z,0.00
2022-10-24T06:05:48.465Z,0.00
2022-10-24T06:06:47.688Z,0.00
2022-10-24T06:07:48.938Z,0.00
2022-10-24T06:08:47.551Z,0.00
2022-10-24T06:09:48.247Z,0.00
2022-10-24T06:10:48.408Z,0.00
2022-10-24T06:11:48.007Z,0.00
2022-10-24T06:12:48.486Z,0.00
2022-10-24T06:13:47.464Z,0.00
2022-10-24T06:14:48.298Z,5.62
2022-10-24T06:15:48.217Z,5.62
2022-10-24T06:16:48.358Z,5.62
2022-10-24T06:17:47.471Z,5.62
2022-10-24T06:18:47.530Z,5.62
2022-10-24T06:20:47.469Z,5.62
2022-10-24T06:21:47.798Z,5.62
2022-10-24T06:22:47.943Z,5.62
2022-10-24T06:23:47.489Z,5.62
2022-10-24T06:24:47.787Z,5.62
2022-10-24T06:25:47.868Z,11.25
2022-10-24T06:26:47.920Z,11.25
2022-10-24T06:27:47.526Z,11.25
2022-10-24T06:28:47.923Z,11.25
2022-10-24T06:29:48.027Z,11.25
2022-10-24T06:30:47.248Z,11.25
2022-10-24T06:31:47.928Z,11.25
2022-10-24T06:32:48.331Z,11.25
2022-10-24T06:33:47.659Z,16.88
2022-10-24T06:34:48.266Z,16.88
2022-10-24T06:35:48.067Z,16.88
2022-10-24T06:36:47.259Z,16.88
2022-10-24T06:37:48.609Z,16.88
2022-10-24T06:38:48.026Z,16.88
2022-10-24T06:39:47.928Z,16.88
2022-10-24T06:40:47.087Z,16.88
2022-10-24T06:41:47.126Z,22.50
2022-10-24T06:42:47.898Z,22.50
2022-10-24T06:43:47.471Z,22.50
2022-10-24T06:44:48.210Z,22.50
2022-10-24T06:45:47.868Z,22.50
2022-10-24T06:46:47.778Z,22.50
2022-10-24T06:47:51.748Z,22.50
2022-10-24T06:48:48.010Z,22.50
2022-10-24T06:49:46.968Z,22.50
2022-10-24T06:50:47.037Z,22.50
2022-10-24T06:51:46.979Z,22.50
2022-10-24T06:52:46.938Z,22.50
2022-10-24T06:53:46.958Z,28.12
2022-10-24T06:54:47.036Z,28.12
2022-10-24T06:55:46.967Z,28.12
2022-10-24T06:56:46.987Z,28.12
2022-10-24T06:57:47.303Z,28.12
2022-10-24T06:58:46.989Z,28.12
2022-10-24T06:59:46.817Z,28.12
2022-10-24T07:00:46.854Z,28.12
2022-10-24T07:01:47.103Z,28.12
2022-10-24T07:02:47.722Z,28.12
2022-10-24T07:03:46.761Z,28.12
2022-10-24T07:04:46.777Z,28.12
2022-10-24T07:05:46.740Z,28.12
2022-10-24T07:06:46.757Z,33.75
2022-10-24T07:07:46.922Z,33.75
2022-10-24T07:08:46.696Z,33.75
2022-10-24T07:09:46.758Z,33.75
2022-10-24T07:10:46.881Z,33.75
2022-10-24T07:11:46.727Z,33.75
2022-10-24T07:12:47.077Z,33.75
2022-10-24T07:13:47.626Z,33.75
2022-10-24T07:14:46.618Z,33.75
2022-10-24T07:15:46.808Z,33.75
2022-10-24T07:16:46.808Z,33.75
2022-10-24T07:17:46.612Z,39.38
2022-10-24T07:18:46.636Z,39.38
2022-10-24T07:19:47.426Z,39.38
2022-10-24T07:20:46.571Z,39.38
2022-10-24T07:21:46.757Z,39.38
2022-10-24T07:22:47.123Z,39.38
2022-10-24T07:23:46.747Z,45.00
2022-10-24T07:24:46.495Z,45.00
2022-10-24T07:25:47.908Z,45.00
2022-10-24T07:26:46.776Z,45.00
2022-10-24T07:27:46.818Z,45.00
2022-10-24T07:28:46.788Z,50.62
2022-10-24T07:29:46.787Z,50.62
2022-10-24T07:30:46.805Z,50.62
2022-10-24T07:31:46.708Z,50.62
2022-10-24T07:32:47.070Z,56.25
2022-10-24T07:33:46.360Z,56.25
2022-10-24T07:34:46.487Z,56.25
2022-10-24T07:35:46.328Z,56.25
2022-10-24T07:36:46.368Z,56.25
2022-10-24T07:37:46.655Z,56.25
2022-10-24T07:38:46.338Z,56.25
2022-10-24T07:39:46.809Z,56.25
2022-10-24T07:40:46.248Z,56.25
2022-10-24T07:41:47.169Z,56.25
2022-10-24T07:42:46.367Z,56.25
2022-10-24T07:43:46.420Z,56.25
2022-10-24T07:44:47.728Z,56.25
2022-10-24T07:45:49.231Z,61.88
2022-10-24T07:46:47.732Z,56.25
2022-10-24T07:47:46.393Z,56.25
2022-10-24T07:48:46.377Z,56.25
2022-10-24T07:49:46.338Z,56.25
2022-10-24T07:50:46.322Z,56.25
2022-10-24T07:51:46.318Z,56.25
2022-10-24T07:52:46.230Z,56.25
2022-10-24T07:53:46.236Z,56.25
2022-10-24T07:54:46.309Z,56.25
2022-10-24T07:55:46.720Z,56.25
2022-10-24T07:56:46.048Z,56.25
2022-10-24T07:57:46.655Z,56.25
2022-10-24T07:58:46.846Z,56.25
2022-10-24T07:59:46.179Z,56.25
2022-10-24T08:00:46.327Z,56.25
2022-10-24T08:01:46.366Z,56.25
2022-10-24T08:02:46.533Z,56.25
2022-10-24T08:03:46.232Z,61.88
2022-10-24T08:04:45.990Z,56.25
2022-10-24T08:05:45.915Z,56.25
2022-10-24T08:06:45.909Z,56.25
2022-10-24T08:07:55.905Z,56.25
2022-10-24T08:08:47.838Z,56.25
2022-10-24T08:09:46.029Z,56.25
2022-10-24T08:10:45.897Z,61.88
2022-10-24T08:11:45.987Z,61.88
2022-10-24T08:12:46.664Z,56.25
2022-10-24T08:13:46.268Z,56.25
2022-10-24T08:14:45.819Z,56.25
2022-10-24T08:15:46.293Z,56.25
2022-10-24T08:16:45.789Z,56.25
2022-10-24T08:17:45.777Z,67.50
2022-10-24T08:18:45.789Z,61.88
2022-10-24T08:19:45.718Z,61.88
2022-10-24T08:20:45.738Z,61.88
2022-10-24T08:21:45.718Z,61.88
2022-10-24T08:22:48.737Z,67.50
2022-10-24T08:23:47.431Z,78.75
2022-10-24T08:24:46.727Z,78.75
2022-10-24T08:25:49.020Z,84.38
2022-10-24T08:26:47.898Z,78.75
2022-10-24T08:27:50.090Z,78.75
2022-10-24T08:28:45.909Z,78.75
2022-10-24T08:29:45.939Z,78.75
2022-10-24T08:30:51.993Z,78.75
2022-10-24T08:31:49.190Z,73.12
2022-10-24T08:32:45.949Z,73.12
2022-10-24T08:33:46.429Z,73.12
2022-10-24T08:34:45.698Z,67.50
2022-10-24T08:35:45.511Z,61.88
2022-10-24T08:36:45.548Z,61.88
2022-10-24T08:37:45.513Z,61.88
2022-10-24T08:38:45.667Z,61.88
2022-10-24T08:39:45.451Z,61.88
2022-10-24T08:40:45.440Z,61.88
2022-10-24T08:41:46.340Z,61.88
2022-10-24T08:42:47.882Z,61.88
2022-10-24T08:43:45.410Z,61.88
2022-10-24T08:44:45.657Z,61.88
2022-10-24T08:45:45.499Z,61.88
2022-10-24T08:46:45.550Z,73.12
2022-10-24T08:47:45.379Z,67.50
2022-10-24T08:48:45.483Z,61.88
2022-10-24T08:49:47.933Z,61.88
2022-10-24T08:50:46.529Z,61.88
2022-10-24T08:51:45.298Z,61.88
2022-10-24T08:52:45.565Z,61.88
2022-10-24T08:53:45.260Z,73.12
2022-10-24T08:54:46.731Z,67.50
2022-10-24T08:55:49.702Z,73.12
2022-10-24T08:56:46.262Z,73.12
2022-10-24T08:57:46.200Z,73.12
2022-10-24T08:58:45.351Z,78.75
2022-10-24T08:59:46.271Z,78.75
2022-10-24T09:00:45.174Z,78.75
2022-10-24T09:01:45.364Z,78.75
2022-10-24T09:02:46.344Z,73.12
2022-10-24T09:04:00.546Z,78.75
2022-10-24T09:04:46.828Z,78.75
2022-10-24T09:05:45.191Z,78.75
2022-10-24T09:06:45.169Z,84.38
2022-10-24T09:07:48.690Z,78.75
2022-10-24T09:08:45.900Z,78.75
2022-10-24T09:09:45.060Z,84.38
2022-10-24T09:10:45.204Z,84.38
2022-10-24T09:11:45.133Z,84.38
2022-10-24T09:12:45.274Z,78.75
2022-10-24T09:13:45.001Z,78.75
2022-10-24T09:14:45.226Z,84.38
2022-10-24T09:15:45.213Z,78.75
2022-10-24T09:16:45.204Z,78.75
2022-10-24T09:17:45.249Z,78.75
2022-10-24T09:18:44.962Z,78.75
2022-10-24T09:19:45.002Z,78.75
2022-10-24T09:20:44.928Z,84.38
2022-10-24T09:21:47.344Z,95.62
2022-10-24T09:22:45.059Z,101.25
2022-10-24T09:23:44.894Z,101.25
2022-10-24T09:24:44.861Z,101.25
2022-10-24T09:25:52.342Z,106.88
2022-10-24T09:26:45.712Z,106.88
2022-10-24T09:27:45.710Z,112.50
2022-10-24T09:28:44.912Z,101.25
2022-10-24T09:29:45.390Z,101.25
2022-10-24T09:30:45.661Z,106.88
2022-10-24T09:31:45.773Z,112.50
2022-10-24T09:32:47.248Z,106.88
2022-10-24T09:33:48.723Z,112.50
2022-10-24T09:34:45.462Z,112.50
2022-10-24T09:35:45.220Z,118.12
2022-10-24T09:36:44.704Z,118.12
2022-10-24T09:37:47.545Z,112.50
2022-10-24T09:38:44.796Z,118.12
2022-10-24T09:39:44.784Z,123.75
2022-10-24T09:40:45.309Z,101.25
2022-10-24T09:41:44.704Z,101.25
2022-10-24T09:42:44.733Z,95.62
2022-10-24T09:43:44.726Z,106.88
2022-10-24T09:44:44.932Z,90.00
2022-10-24T09:45:45.273Z,84.38
2022-10-24T09:46:44.603Z,101.25
2022-10-24T09:47:44.827Z,112.50
2022-10-24T09:48:44.553Z,101.25
2022-10-24T09:49:45.039Z,106.88
2022-10-24T09:50:44.693Z,135.00
2022-10-24T09:51:44.674Z,112.50
2022-10-24T09:52:44.513Z,106.88
2022-10-24T09:53:44.484Z,84.38
2022-10-24T09:54:44.458Z,84.38
2022-10-24T09:55:44.454Z,101.25
2022-10-24T09:56:45.106Z,95.62
2022-10-24T09:57:45.448Z,101.25
2022-10-24T09:58:44.404Z,112.50
2022-10-24T09:59:44.773Z,95.62
2022-10-24T10:00:44.944Z,101.25
2022-10-24T10:01:44.439Z,84.38
2022-10-24T10:02:45.024Z,106.88
2022-10-24T10:03:44.345Z,123.75
2022-10-24T10:04:44.384Z,84.38
2022-10-24T10:05:44.324Z,101.25
2022-10-24T10:06:44.465Z,129.38
2022-10-24T10:07:44.703Z,84.38
2022-10-24T10:08:44.276Z,129.38
2022-10-24T10:09:44.366Z,135.00
2022-10-24T10:10:44.406Z,140.62
2022-10-24T10:12:00.807Z,140.62
2022-10-24T10:12:46.515Z,135.00
2022-10-24T10:13:45.057Z,140.62
2022-10-24T10:14:44.954Z,95.62
2022-10-24T10:15:45.206Z,106.88
2022-10-24T10:16:44.196Z,101.25
2022-10-24T10:17:44.785Z,106.88
2022-10-24T10:18:45.946Z,106.88
2022-10-24T10:19:44.404Z,112.50
2022-10-24T10:20:44.376Z,101.25
2022-10-24T10:21:44.186Z,112.50
2022-10-24T10:22:49.155Z,106.88
2022-10-24T10:23:45.080Z,106.88
2022-10-24T10:24:44.077Z,101.25
2022-10-24T10:25:44.189Z,95.62
2022-10-24T10:26:44.036Z,106.88
2022-10-24T10:27:44.300Z,106.88
2022-10-24T10:28:44.016Z,90.00
2022-10-24T10:29:44.417Z,90.00
2022-10-24T10:30:43.987Z,95.62
2022-10-24T10:31:44.044Z,95.62
2022-10-24T10:32:44.095Z,95.62
2022-10-24T10:33:44.229Z,84.38
2022-10-24T10:34:44.708Z,90.00
2022-10-24T10:35:44.007Z,101.25
2022-10-24T10:36:44.589Z,101.25
2022-10-24T10:37:55.849Z,101.25
2022-10-24T10:38:44.176Z,90.00
2022-10-24T10:39:45.216Z,90.00
2022-10-24T10:40:44.758Z,101.25
2022-10-24T10:41:43.880Z,95.62
2022-10-24T10:42:44.055Z,90.00
2022-10-24T10:43:43.809Z,90.00
2022-10-24T10:44:43.809Z,95.62
2022-10-24T10:45:43.788Z,106.88
2022-10-24T10:46:43.776Z,95.62
2022-10-24T10:47:43.787Z,95.62
2022-10-24T10:48:43.750Z,106.88
2022-10-24T10:49:43.741Z,112.50
2022-10-24T10:50:44.049Z,101.25
2022-10-24T10:51:43.788Z,95.62
2022-10-24T10:52:44.785Z,95.62
2022-10-24T10:53:44.627Z,101.25
2022-10-24T10:54:43.670Z,106.88
2022-10-24T10:55:43.669Z,106.88
2022-10-24T10:56:43.640Z,106.88
2022-10-24T10:57:43.659Z,106.88
2022-10-24T10:58:43.632Z,106.88
2022-10-24T10:59:43.999Z,101.25
2022-10-24T11:00:43.607Z,90.00
2022-10-24T11:01:44.400Z,84.38
2022-10-24T11:02:47.002Z,90.00
2022-10-24T11:03:44.562Z,84.38
2022-10-24T11:04:43.630Z,78.75
2022-10-24T11:05:43.630Z,78.75
2022-10-24T11:06:43.749Z,95.62
2022-10-24T11:07:43.769Z,90.00
2022-10-24T11:08:43.603Z,90.00
2022-10-24T11:09:43.509Z,95.62
2022-10-24T11:10:43.450Z,78.75
2022-10-24T11:11:43.450Z,61.88
2022-10-24T11:12:43.579Z,56.25
2022-10-24T11:13:43.691Z,61.88
2022-10-24T11:14:43.404Z,67.50
2022-10-24T11:15:43.401Z,67.50
2022-10-24T11:16:43.373Z,67.50
2022-10-24T11:17:43.702Z,61.88
2022-10-24T11:18:43.351Z,67.50
2022-10-24T11:19:43.628Z,73.12
2022-10-24T11:20:43.429Z,78.75
2022-10-24T11:21:43.722Z,73.12
2022-10-24T11:22:43.442Z,73.12
2022-10-24T11:24:43.352Z,118.12
2022-10-24T11:25:43.362Z,123.75
2022-10-24T11:26:43.372Z,112.50
2022-10-24T11:27:43.740Z,123.75
2022-10-24T11:28:43.250Z,123.75
2022-10-24T11:29:43.213Z,208.12
2022-10-24T11:30:43.233Z,185.62
2022-10-24T11:31:43.202Z,225.00
2022-10-24T11:32:43.452Z,129.38
2022-10-24T11:33:43.154Z,123.75
2022-10-24T11:34:43.530Z,129.38
2022-10-24T11:35:43.142Z,123.75
2022-10-24T11:36:43.119Z,123.75
2022-10-24T11:37:43.132Z,118.12
2022-10-24T11:38:43.099Z,123.75
2022-10-24T11:39:43.082Z,129.38
2022-10-24T11:40:43.073Z,123.75
2022-10-24T11:41:43.082Z,118.12
2022-10-24T11:42:43.272Z,118.12
2022-10-24T11:43:43.032Z,123.75
2022-10-24T11:44:43.002Z,135.00
2022-10-24T11:45:43.034Z,129.38
2022-10-24T11:46:43.011Z,123.75
2022-10-24T11:47:43.711Z,123.75
2022-10-24T11:48:43.020Z,157.50
2022-10-24T11:49:42.943Z,123.75
2022-10-24T11:50:42.933Z,123.75
2022-10-24T11:51:42.926Z,129.38
2022-10-24T11:52:43.200Z,129.38
2022-10-24T11:53:43.723Z,146.25
2022-10-24T11:54:42.896Z,129.38
2022-10-24T11:55:42.874Z,123.75
2022-10-24T11:56:43.907Z,118.12
2022-10-24T11:57:44.158Z,112.50
2022-10-24T11:58:42.837Z,101.25
2022-10-24T11:59:43.447Z,90.00
2022-10-24T12:00:42.803Z,90.00
2022-10-24T12:01:42.923Z,95.62
2022-10-24T12:02:43.193Z,95.62
2022-10-24T12:03:43.104Z,95.62
2022-10-24T12:04:44.397Z,90.00
2022-10-24T12:05:42.989Z,78.75
2022-10-24T12:06:42.828Z,78.75
2022-10-24T12:07:42.973Z,78.75
2022-10-24T12:08:43.607Z,101.25
2022-10-24T12:09:42.787Z,106.88
2022-10-24T12:10:42.675Z,106.88
2022-10-24T12:11:42.683Z,106.88
2022-10-24T12:12:42.735Z,106.88
2022-10-24T12:13:42.787Z,101.25
2022-10-24T12:14:43.647Z,90.00
2022-10-24T12:15:46.208Z,84.38
2022-10-24T12:16:43.678Z,73.12
2022-10-24T12:17:43.062Z,61.88
2022-10-24T12:18:43.328Z,56.25
2022-10-24T12:19:42.718Z,56.25
2022-10-24T12:20:42.828Z,61.88
2022-10-24T12:21:42.718Z,61.88
2022-10-24T12:22:43.624Z,61.88
2022-10-24T12:23:42.732Z,67.50
2022-10-24T12:24:42.755Z,90.00
2022-10-24T12:25:47.224Z,106.88
2022-10-24T12:26:43.627Z,106.88
2022-10-24T12:27:42.640Z,112.50
2022-10-24T12:28:43.017Z,118.12
2022-10-24T12:29:42.591Z,106.88
2022-10-24T12:30:42.673Z,90.00
2022-10-24T12:31:42.826Z,84.38
2022-10-24T12:32:42.789Z,78.75
2022-10-24T12:33:42.538Z,73.12
2022-10-24T12:34:48.820Z,56.25
2022-10-24T12:35:43.379Z,61.88
2022-10-24T12:36:42.867Z,78.75
2022-10-24T12:37:46.690Z,95.62
2022-10-24T12:38:42.987Z,90.00
2022-10-24T12:39:44.497Z,67.50
2022-10-24T12:40:42.768Z,67.50
2022-10-24T12:41:42.330Z,61.88
2022-10-24T12:42:42.539Z,56.25
2022-10-24T12:43:42.241Z,50.62
2022-10-24T12:44:42.464Z,50.62
2022-10-24T12:45:42.209Z,50.62
2022-10-24T12:46:42.264Z,45.00
2022-10-24T12:47:43.126Z,50.62
2022-10-24T12:48:42.254Z,50.62
2022-10-24T12:49:42.204Z,67.50
2022-10-24T12:50:42.188Z,67.50
2022-10-24T12:51:42.980Z,67.50
2022-10-24T12:52:42.810Z,67.50
2022-10-24T12:53:42.101Z,67.50
2022-10-24T12:54:42.110Z,67.50
2022-10-24T12:55:42.070Z,78.75
2022-10-24T12:56:44.862Z,90.00
2022-10-24T12:57:42.129Z,90.00
2022-10-24T12:58:42.040Z,78.75
2022-10-24T12:59:42.141Z,67.50
2022-10-24T13:00:42.051Z,61.88
2022-10-24T13:01:42.296Z,61.88
2022-10-24T13:02:42.101Z,61.88
2022-10-24T13:03:42.832Z,73.12
2022-10-24T13:04:41.993Z,84.38